Time;durP1;ratioP1;P1;durP2;ratioP2;P2;SDS_P1;SDS_P2;PMS_P1;PMS_P2;Temp;Humidity;BMP_temperature;BMP_pressure;BME280_temperature;BME280_humidity;BME280_pressure;Samples;Min_cycle;Max_cycle;Signal;HPM_P1;HPM_P2
2022/04/05 00:01:12;;;;;;;0.80;0.80;;;16.50;52.00;;;;;;5134599;27;20172;-66
2022/04/05 00:03:37;;;;;;;0.70;0.70;;;16.50;52.10;;;;;;5133862;27;20583;-66
2022/04/05 00:06:03;;;;;;;1.05;0.77;;;16.40;52.00;;;;;;5134798;27;20168;-66
2022/04/05 00:08:29;;;;;;;0.63;0.63;;;16.40;52.10;;;;;;5134346;27;20172;-66
2022/04/05 00:10:54;;;;;;;0.68;0.68;;;16.40;52.10;;;;;;5134012;27;20623;-67
2022/04/05 00:13:20;;;;;;;0.50;0.50;;;16.40;52.70;;;;;;5134377;27;20169;-69
2022/04/05 00:15:45;;;;;;;0.73;0.70;;;16.40;52.10;;;;;;5134427;27;20643;-67
2022/04/05 00:18:11;;;;;;;0.95;0.70;;;16.40;52.20;;;;;;5133399;27;20201;-68
2022/04/05 00:20:36;;;;;;;0.63;0.63;;;16.40;52.20;;;;;;5134579;27;20537;-67
2022/04/05 00:23:02;;;;;;;0.77;0.73;;;16.30;52.10;;;;;;5134225;27;20197;-67
2022/04/05 00:25:27;;;;;;;0.47;0.47;;;16.30;52.20;;;;;;5133098;27;20176;-68
2022/04/05 00:27:53;;;;;;;0.60;0.60;;;16.30;52.10;;;;;;5134419;27;20173;-66
2022/04/05 00:30:19;;;;;;;1.02;0.68;;;16.30;52.20;;;;;;5134174;27;20169;-67
2022/04/05 00:32:44;;;;;;;0.50;0.50;;;16.30;52.20;;;;;;5133512;27;20661;-66
2022/04/05 00:35:10;;;;;;;1.00;0.70;;;16.30;52.20;;;;;;5133961;27;20176;-66
2022/04/05 00:37:36;;;;;;;0.85;0.68;;;16.30;52.30;;;;;;5133989;27;20176;-66
2022/04/05 00:40:05;;;;;;;0.70;0.57;;;16.30;52.20;;;;;;5133805;27;20168;-66
2022/04/05 00:42:31;;;;;;;0.63;0.60;;;16.30;52.20;;;;;;5134123;27;20618;-68
2022/04/05 00:44:58;;;;;;;1.05;0.65;;;16.20;52.20;;;;;;5134082;27;20714;-67
2022/04/05 00:47:23;;;;;;;0.80;0.70;;;16.30;52.30;;;;;;5133059;27;20176;-67
2022/04/05 00:49:50;;;;;;;0.50;0.50;;;16.20;52.20;;;;;;5133950;27;20634;-66
2022/04/05 00:52:16;;;;;;;0.60;0.60;;;16.20;52.20;;;;;;5133619;27;20176;-67
2022/04/05 00:54:44;;;;;;;0.93;0.80;;;16.20;52.20;;;;;;5133212;27;20291;-67
2022/04/05 00:57:28;;;;;;;0.80;0.80;;;16.20;52.20;;;;;;5133134;27;20239;-67
2022/04/05 00:59:56;;;;;;;0.65;0.60;;;16.20;52.30;;;;;;5133375;27;20173;-66
2022/04/05 01:02:21;;;;;;;0.60;0.50;;;16.20;52.30;;;;;;5133314;27;20208;-65
2022/04/05 01:04:49;;;;;;;0.88;0.60;;;16.20;52.30;;;;;;5133594;27;20180;-66
2022/04/05 01:07:16;;;;;;;0.88;0.80;;;16.20;52.40;;;;;;5132813;27;20200;-66
2022/04/05 01:09:42;;;;;;;0.70;0.60;;;16.10;52.30;;;;;;5133812;27;20184;-67
2022/04/05 01:12:09;;;;;;;0.40;0.40;;;16.10;52.30;;;;;;5133635;28;20513;-68
2022/04/05 01:14:34;;;;;;;0.40;0.40;;;16.10;52.30;;;;;;5132885;28;20187;-68
2022/04/05 01:17:00;;;;;;;0.85;0.70;;;16.10;52.30;;;;;;5133596;28;20176;-67
2022/04/05 01:19:26;;;;;;;0.70;0.70;;;16.10;52.30;;;;;;5133286;28;20611;-67
2022/04/05 01:21:51;;;;;;;0.52;0.52;;;16.10;52.30;;;;;;5132968;27;20177;-67
2022/04/05 01:24:17;;;;;;;1.40;0.90;;;16.10;52.30;;;;;;5133286;28;20310;-67
2022/04/05 01:26:50;;;;;;;0.40;0.40;;;16.10;52.40;;;;;;5133714;28;20164;-67
2022/04/05 01:29:16;;;;;;;0.93;0.50;;;16.10;52.40;;;;;;5132462;28;20186;-67
2022/04/05 01:31:49;;;;;;;0.50;0.40;;;16.00;52.30;;;;;;5133563;28;20211;-67
2022/04/05 01:34:16;;;;;;;0.70;0.50;;;16.10;52.40;;;;;;5133286;28;20176;-65
2022/04/05 01:36:43;;;;;;;0.80;0.70;;;16.00;52.40;;;;;;5132805;28;20183;-66
2022/04/05 01:39:09;;;;;;;0.50;0.50;;;16.00;52.30;;;;;;5133153;28;20177;-67
2022/04/05 01:41:36;;;;;;;0.88;0.52;;;16.00;52.40;;;;;;5133303;28;20243;-67
2022/04/05 01:44:05;;;;;;;0.68;0.60;;;16.00;52.30;;;;;;5132663;27;20233;-67
2022/04/05 01:46:33;;;;;;;0.43;0.43;;;16.00;52.30;;;;;;5133298;28;20589;-67
2022/04/05 01:48:59;;;;;;;0.65;0.50;;;16.00;52.30;;;;;;5132585;28;20177;-67
2022/04/05 01:51:24;;;;;;;0.60;0.60;;;16.00;53.00;;;;;;5132945;28;20222;-67
2022/04/05 01:53:50;;;;;;;0.77;0.63;;;16.00;52.40;;;;;;5133355;28;20178;-67
2022/04/05 01:56:15;;;;;;;1.00;0.90;;;16.00;52.40;;;;;;5132078;27;20160;-66
2022/04/05 01:58:41;;;;;;;0.68;0.68;;;15.90;52.40;;;;;;5133042;27;20220;-66
2022/04/05 02:01:06;;;;;;;0.60;0.60;;;15.90;52.40;;;;;;5131930;27;20176;-66
2022/04/05 02:03:32;;;;;;;0.52;0.52;;;16.00;52.40;;;;;;5132592;28;20253;-66
2022/04/05 02:05:58;;;;;;;0.57;0.50;;;15.90;52.40;;;;;;5133313;28;20307;-66
2022/04/05 02:08:24;;;;;;;0.45;0.40;;;15.90;52.50;;;;;;5135135;27;20271;-67
2022/04/05 02:10:49;;;;;;;0.30;0.30;;;15.90;52.40;;;;;;5136355;27;20268;-67
2022/04/05 02:13:15;;;;;;;0.50;0.50;;;15.90;52.50;;;;;;5136564;27;20228;-69
2022/04/05 02:15:40;;;;;;;1.88;0.65;;;15.90;52.40;;;;;;5136667;27;20257;-67
2022/04/05 02:18:06;;;;;;;0.60;0.60;;;15.90;52.40;;;;;;5136113;27;20184;-68
2022/04/05 02:20:32;;;;;;;0.70;0.40;;;15.90;52.50;;;;;;5136455;27;20179;-67
2022/04/05 02:22:58;;;;;;;0.52;0.40;;;15.90;52.50;;;;;;5135252;27;20265;-68
2022/04/05 02:25:24;;;;;;;0.70;0.70;;;15.90;52.50;;;;;;5134269;27;20172;-68
2022/04/05 02:27:49;;;;;;;0.55;0.55;;;15.80;52.40;;;;;;5135175;27;20185;-67
2022/04/05 02:30:15;;;;;;;0.50;0.50;;;15.90;52.40;;;;;;5134634;27;20198;-67
2022/04/05 02:32:40;;;;;;;0.85;0.60;;;15.90;52.40;;;;;;5134663;27;20545;-66
2022/04/05 02:35:08;;;;;;;0.65;0.40;;;15.80;52.40;;;;;;5135081;27;20180;-66
2022/04/05 02:37:34;;;;;;;0.90;0.90;;;15.80;52.50;;;;;;5135098;27;20184;-67
2022/04/05 02:39:59;;;;;;;0.40;0.40;;;15.80;52.40;;;;;;5134301;27;20270;-67
2022/04/05 02:42:25;;;;;;;0.52;0.52;;;15.80;52.40;;;;;;5134441;27;20204;-67
2022/04/05 02:44:53;;;;;;;1.55;0.35;;;15.80;52.50;;;;;;5134773;27;20172;-68
2022/04/05 02:47:18;;;;;;;0.45;0.40;;;15.80;52.40;;;;;;5133817;27;20173;-67
2022/04/05 02:49:44;;;;;;;1.23;0.50;;;15.80;52.50;;;;;;5134997;27;20180;-68
2022/04/05 02:52:10;;;;;;;0.40;0.40;;;15.80;52.40;;;;;;5134034;27;20184;-67
2022/04/05 02:54:35;;;;;;;0.43;0.40;;;15.80;52.50;;;;;;5134593;27;20694;-67
2022/04/05 02:57:01;;;;;;;0.43;0.43;;;15.80;52.50;;;;;;5134324;27;20224;-67
2022/04/05 02:59:26;;;;;;;0.55;0.55;;;15.80;52.40;;;;;;5133536;27;20457;-67
2022/04/05 03:01:52;;;;;;;0.40;0.40;;;15.70;52.40;;;;;;5134994;27;20575;-66
2022/04/05 03:04:18;;;;;;;1.45;0.50;;;15.70;52.40;;;;;;5134272;27;20228;-67
2022/04/05 03:06:43;;;;;;;1.30;0.50;;;15.70;52.50;;;;;;5134024;27;20215;-67
2022/04/05 03:09:09;;;;;;;0.47;0.47;;;15.80;52.50;;;;;;5134012;27;20345;-68
2022/04/05 03:11:34;;;;;;;0.70;0.70;;;15.70;52.40;;;;;;5134471;27;20698;-68
2022/04/05 03:14:00;;;;;;;0.50;0.50;;;15.70;52.50;;;;;;5133484;27;20192;-69
2022/04/05 03:16:25;;;;;;;0.40;0.40;;;15.70;52.50;;;;;;5134026;27;20181;-67
2022/04/05 03:18:52;;;;;;;0.60;0.60;;;15.70;52.50;;;;;;5133782;27;20176;-68
2022/04/05 03:21:17;;;;;;;0.30;0.30;;;15.70;52.50;;;;;;5133177;27;20179;-68
2022/04/05 03:23:43;;;;;;;0.77;0.45;;;15.70;52.50;;;;;;5134097;27;20208;-67
2022/04/05 03:26:08;;;;;;;0.50;0.50;;;15.70;52.50;;;;;;5133797;27;20233;-68
2022/04/05 03:28:34;;;;;;;0.30;0.30;;;15.60;52.50;;;;;;5133001;27;20606;-67
2022/04/05 03:30:59;;;;;;;0.50;0.50;;;15.70;52.50;;;;;;5134360;27;20176;-67
2022/04/05 03:33:25;;;;;;;0.40;0.40;;;15.70;52.60;;;;;;5133945;27;20571;-66
2022/04/05 03:35:51;;;;;;;0.47;0.47;;;15.60;52.50;;;;;;5133265;27;20176;-66
2022/04/05 03:38:17;;;;;;;0.40;0.40;;;15.70;52.50;;;;;;5133696;27;20203;-67
2022/04/05 03:40:42;;;;;;;0.75;0.40;;;15.70;52.50;;;;;;5133805;27;20280;-66
2022/04/05 03:43:12;;;;;;;0.80;0.70;;;15.60;52.50;;;;;;5132555;27;20220;-67
2022/04/05 03:45:37;;;;;;;0.65;0.47;;;15.70;52.60;;;;;;5116247;27;20165;-67
2022/04/05 03:48:03;;;;;;;0.63;0.60;;;15.60;52.50;;;;;;5133621;27;20286;-67
2022/04/05 03:50:30;;;;;;;0.55;0.50;;;15.60;52.50;;;;;;5132479;27;20196;-68
2022/04/05 03:52:58;;;;;;;0.30;0.30;;;15.60;52.50;;;;;;5133751;27;20168;-68
2022/04/05 03:55:24;;;;;;;0.30;0.30;;;15.60;52.50;;;;;;5132494;27;20253;-67
2022/04/05 03:57:49;;;;;;;0.65;0.50;;;15.60;52.50;;;;;;5133374;27;20226;-66
2022/04/05 04:00:15;;;;;;;0.70;0.50;;;15.60;52.50;;;;;;5133027;27;20176;-65
2022/04/05 04:02:40;;;;;;;0.40;0.40;;;15.60;52.60;;;;;;5132719;27;20674;-66
2022/04/05 04:05:06;;;;;;;0.40;0.40;;;15.60;52.60;;;;;;5133400;27;20176;-66
2022/04/05 04:07:37;;;;;;;0.60;0.40;;;15.60;52.60;;;;;;5133108;27;20172;-66
2022/04/05 04:10:03;;;;;;;1.30;0.40;;;15.60;52.60;;;;;;5132704;27;20607;-67
2022/04/05 04:12:28;;;;;;;0.47;0.47;;;15.60;52.60;;;;;;5132898;27;20184;-67
2022/04/05 04:14:57;;;;;;;0.40;0.40;;;15.50;52.60;;;;;;5133336;27;20168;-69
2022/04/05 04:17:23;;;;;;;0.20;0.20;;;15.60;52.60;;;;;;5132218;27;20175;-68
2022/04/05 04:19:48;;;;;;;0.30;0.30;;;15.60;52.60;;;;;;5133031;27;20172;-67
2022/04/05 04:22:14;;;;;;;0.40;0.40;;;15.50;52.50;;;;;;5132530;27;20168;-68
2022/04/05 04:24:39;;;;;;;0.40;0.40;;;15.50;52.50;;;;;;5132253;27;20176;-67
2022/04/05 04:27:06;;;;;;;0.40;0.40;;;15.50;52.60;;;;;;5132556;27;20643;-68
2022/04/05 04:29:32;;;;;;;0.68;0.52;;;15.50;52.60;;;;;;5132738;27;20618;-66
2022/04/05 04:31:57;;;;;;;0.75;0.63;;;15.50;52.60;;;;;;5131868;27;20192;-66
2022/04/05 04:34:23;;;;;;;0.40;0.40;;;15.50;52.60;;;;;;5132461;27;20168;-66
2022/04/05 04:36:49;;;;;;;0.40;0.40;;;15.50;52.60;;;;;;5132839;27;20184;-65
2022/04/05 04:39:17;;;;;;;0.47;0.40;;;15.50;52.60;;;;;;5096427;27;20196;-67
2022/04/05 04:41:42;;;;;;;1.33;0.68;;;15.50;52.60;;;;;;5114938;27;20176;-66
2022/04/05 04:44:08;;;;;;;0.50;0.50;;;15.50;52.60;;;;;;5132373;27;20208;-68
2022/04/05 04:46:36;;;;;;;0.30;0.30;;;15.50;52.60;;;;;;5131711;27;20196;-67
2022/04/05 04:49:02;;;;;;;0.30;0.30;;;15.50;52.60;;;;;;5132849;27;20548;-67
2022/04/05 04:51:27;;;;;;;0.40;0.40;;;15.50;52.70;;;;;;5132410;27;20615;-67
2022/04/05 04:53:53;;;;;;;0.73;0.40;;;15.50;52.70;;;;;;5131560;27;20631;-67
2022/04/05 04:56:18;;;;;;;0.38;0.38;;;15.50;52.60;;;;;;5132674;27;20180;-67
2022/04/05 04:58:44;;;;;;;0.57;0.30;;;15.40;52.70;;;;;;5130320;27;20219;-67
2022/04/05 05:01:10;;;;;;;0.40;0.40;;;15.50;52.70;;;;;;5131911;27;20631;-66
2022/04/05 05:03:35;;;;;;;0.40;0.40;;;15.50;52.80;;;;;;5132563;27;20305;-66
2022/04/05 05:06:01;;;;;;;0.38;0.35;;;15.50;53.00;;;;;;5131699;27;20164;-66
2022/04/05 05:08:27;;;;;;;0.45;0.40;;;15.60;52.90;;;;;;5132035;27;20176;-67
2022/04/05 05:10:52;;;;;;;0.40;0.40;;;15.70;52.90;;;;;;5132631;27;20168;-67
2022/04/05 05:13:21;;;;;;;0.60;0.60;;;15.80;52.80;;;;;;5131299;28;20658;-68
2022/04/05 05:15:46;;;;;;;0.63;0.43;;;16.00;52.70;;;;;;5132615;28;20188;-68
2022/04/05 05:18:12;;;;;;;0.50;0.50;;;16.20;53.00;;;;;;5131157;28;20215;-67
2022/04/05 05:20:38;;;;;;;0.40;0.40;;;16.40;52.30;;;;;;5131532;28;20187;-67
2022/04/05 05:23:03;;;;;;;0.43;0.43;;;16.60;51.90;;;;;;5132071;28;20738;-67
2022/04/05 05:25:29;;;;;;;0.30;0.30;;;16.80;51.40;;;;;;5131895;28;20263;-67
2022/04/05 05:27:57;;;;;;;0.30;0.30;;;17.10;50.70;;;;;;5131704;28;20172;-67
2022/04/05 05:30:23;;;;;;;0.57;0.40;;;17.30;50.40;;;;;;5132040;28;20179;-67
2022/04/05 05:32:49;;;;;;;0.30;0.30;;;17.50;50.00;;;;;;5132178;28;20164;-66
2022/04/05 05:35:15;;;;;;;0.40;0.40;;;17.60;49.60;;;;;;5131331;28;20179;-65
2022/04/05 05:37:40;;;;;;;0.88;0.40;;;17.70;49.60;;;;;;5132051;28;20252;-66
2022/04/05 05:40:06;;;;;;;0.52;0.50;;;17.80;49.40;;;;;;5132101;28;20176;-66
2022/04/05 05:42:32;;;;;;;0.85;0.30;;;17.70;49.50;;;;;;5133998;27;20294;-66
2022/04/05 05:44:57;;;;;;;0.30;0.30;;;17.60;49.50;;;;;;5136182;27;20252;-67
2022/04/05 05:47:24;;;;;;;0.47;0.40;;;17.60;49.70;;;;;;5135752;27;20642;-68
2022/04/05 05:49:49;;;;;;;0.35;0.35;;;17.50;49.80;;;;;;5117161;27;20164;-67
2022/04/05 05:52:14;;;;;;;0.40;0.40;;;17.40;50.00;;;;;;5135450;27;20506;-67
2022/04/05 05:54:40;;;;;;;0.43;0.30;;;17.30;50.20;;;;;;5136121;27;20192;-67
2022/04/05 05:57:06;;;;;;;0.30;0.30;;;17.20;50.30;;;;;;5134922;27;20254;-68
2022/04/05 05:59:31;;;;;;;0.50;0.50;;;17.10;50.40;;;;;;5135820;27;20188;-67
2022/04/05 06:01:59;;;;;;;0.60;0.60;;;17.00;50.60;;;;;;5135580;27;20168;-66
2022/04/05 06:04:25;;;;;;;0.35;0.35;;;16.90;50.70;;;;;;5135288;27;20215;-67
2022/04/05 06:06:50;;;;;;;0.50;0.50;;;17.00;50.80;;;;;;5135479;27;20173;-67
2022/04/05 06:09:16;;;;;;;0.60;0.60;;;17.10;50.90;;;;;;5135127;27;20533;-68
2022/04/05 06:11:41;;;;;;;0.40;0.30;;;17.10;51.40;;;;;;5135676;27;20160;-68
2022/04/05 06:14:07;;;;;;;0.22;0.22;;;17.20;50.60;;;;;;5135067;27;20183;-68
2022/04/05 06:16:32;;;;;;;0.40;0.40;;;17.30;50.50;;;;;;5134745;27;20165;-68
2022/04/05 06:18:58;;;;;;;0.60;0.40;;;17.40;50.30;;;;;;5135419;27;20232;-68
2022/04/05 06:21:23;;;;;;;0.40;0.40;;;17.50;50.30;;;;;;5135013;27;20578;-68
2022/04/05 06:23:49;;;;;;;0.85;0.47;;;17.50;50.30;;;;;;5134748;27;20693;-68
2022/04/05 06:26:14;;;;;;;0.40;0.40;;;17.50;50.20;;;;;;5135495;27;20211;-68
2022/04/05 06:28:40;;;;;;;0.60;0.60;;;17.60;50.10;;;;;;5135297;27;20176;-68
2022/04/05 06:31:06;;;;;;;1.10;0.45;;;17.70;50.00;;;;;;5134557;27;20176;-67
2022/04/05 06:33:31;;;;;;;0.50;0.50;;;17.90;49.60;;;;;;5135386;27;20177;-65
2022/04/05 06:35:58;;;;;;;0.40;0.40;;;18.10;49.40;;;;;;5135252;27;20202;-70
2022/04/05 06:38:23;;;;;;;0.68;0.50;;;18.20;49.20;;;;;;5134757;27;20193;-71
2022/04/05 06:40:49;;;;;;;3.55;0.85;;;18.30;49.20;;;;;;5135591;27;20165;-73
2022/04/05 06:43:15;;;;;;;1.55;0.80;;;18.30;49.10;;;;;;5135195;27;20612;-72
2022/04/05 06:45:41;;;;;;;1.50;1.05;;;18.30;49.10;;;;;;5134779;27;20173;-72
2022/04/05 06:48:09;;;;;;;3.67;1.17;;;18.30;49.10;;;;;;5135141;27;20229;-71
2022/04/05 06:50:35;;;;;;;1.13;1.00;;;18.30;49.10;;;;;;5135241;27;20255;-72
2022/04/05 06:53:04;;;;;;;2.35;1.27;;;18.30;49.10;;;;;;5133966;27;20255;-72
2022/04/05 06:55:29;;;;;;;1.55;1.30;;;18.30;49.10;;;;;;5135056;27;20196;-72
2022/04/05 06:57:55;;;;;;;1.45;1.15;;;18.30;49.20;;;;;;5135075;27;20223;-67
2022/04/05 07:00:23;;;;;;;7.15;1.15;;;18.40;49.10;;;;;;5133982;27;20203;-66
2022/04/05 07:02:52;;;;;;;4.60;1.10;;;18.70;49.30;;;;;;5134894;27;20258;-64
2022/04/05 07:05:18;;;;;;;1.25;0.70;;;18.50;49.10;;;;;;5133843;27;20184;-65
2022/04/05 07:07:43;;;;;;;2.35;1.25;;;18.60;49.00;;;;;;5135041;27;20169;-65
2022/04/05 07:10:10;;;;;;;5.68;1.45;;;18.70;49.00;;;;;;5134405;27;20169;-69
2022/04/05 07:12:36;;;;;;;0.90;0.70;;;18.80;48.80;;;;;;5134238;27;20295;-71
2022/04/05 07:15:01;;;;;;;1.92;1.10;;;18.70;48.70;;;;;;5134646;27;20260;-71
2022/04/05 07:17:33;;;;;;;2.90;0.80;;;18.60;48.90;;;;;;5134479;27;20546;-72
2022/04/05 07:19:59;;;;;;;3.83;1.02;;;18.50;49.10;;;;;;5134266;27;20181;-73
2022/04/05 07:22:26;;;;;;;2.70;0.95;;;18.40;49.40;;;;;;5134334;27;20631;-72
2022/04/05 07:24:51;;;;;;;1.88;0.85;;;18.20;49.60;;;;;;5134754;27;20184;-73
2022/04/05 07:27:17;;;;;;;1.10;0.95;;;18.10;49.90;;;;;;5133519;27;20169;-73
2022/04/05 07:29:42;;;;;;;1.75;0.98;;;18.10;50.00;;;;;;5134597;27;20322;-72
2022/04/05 07:32:08;;;;;;;5.15;1.10;;;18.00;50.00;;;;;;5134294;27;20244;-71
2022/04/05 07:34:33;;;;;;;2.17;1.10;;;18.00;50.20;;;;;;5133784;27;20188;-70
2022/04/05 07:36:59;;;;;;;1.17;0.82;;;18.00;50.20;;;;;;5134449;27;20531;-72
2022/04/05 07:39:25;;;;;;;4.05;1.42;;;18.00;50.20;;;;;;5134126;27;20169;-71
2022/04/05 07:41:50;;;;;;;1.65;1.02;;;18.00;50.30;;;;;;5133468;27;20180;-72
2022/04/05 07:44:16;;;;;;;1.52;0.90;;;17.90;50.30;;;;;;5133815;27;20574;-72
2022/04/05 07:46:41;;;;;;;2.00;1.00;;;17.90;50.40;;;;;;5134084;27;20678;-72
2022/04/05 07:49:07;;;;;;;1.13;0.68;;;17.80;50.50;;;;;;5133072;27;20579;-72
2022/04/05 07:51:32;;;;;;;3.45;0.90;;;17.80;50.70;;;;;;5134208;27;20165;-73
2022/04/05 07:53:58;;;;;;;2.72;0.85;;;17.80;50.80;;;;;;5133902;27;20248;-72
2022/04/05 07:56:23;;;;;;;1.17;0.98;;;17.70;50.70;;;;;;5133195;27;20177;-71
2022/04/05 07:58:49;;;;;;;3.15;0.80;;;17.80;50.70;;;;;;5133769;27;20216;-70
2022/04/05 08:01:15;;;;;;;1.52;0.82;;;17.90;50.70;;;;;;5133518;27;20627;-70
2022/04/05 08:03:40;;;;;;;0.68;0.60;;;17.90;50.70;;;;;;5132982;27;20232;-70
2022/04/05 08:06:06;;;;;;;1.48;1.05;;;17.90;50.70;;;;;;5132718;27;20648;-72
2022/04/05 08:08:31;;;;;;;1.42;0.80;;;18.00;50.50;;;;;;5133808;27;20699;-72
2022/04/05 08:10:57;;;;;;;1.58;0.73;;;18.00;50.40;;;;;;5133294;27;20519;-73
2022/04/05 08:13:22;;;;;;;2.35;0.60;;;18.10;50.50;;;;;;5133217;27;20180;-73
2022/04/05 08:15:48;;;;;;;1.05;0.70;;;18.10;50.30;;;;;;5132809;27;20168;-72
2022/04/05 08:18:13;;;;;;;0.77;0.68;;;18.30;50.10;;;;;;5133279;27;20548;-73
2022/04/05 08:20:43;;;;;;;0.95;0.80;;;18.30;50.00;;;;;;5133584;27;20172;-73
2022/04/05 08:23:08;;;;;;;0.80;0.60;;;18.40;49.90;;;;;;5132532;27;20247;-72
2022/04/05 08:25:34;;;;;;;1.40;0.90;;;18.40;49.80;;;;;;5133679;27;20196;-73
2022/04/05 08:27:59;;;;;;;0.90;0.65;;;18.50;49.70;;;;;;5133362;27;20191;-72
2022/04/05 08:30:25;;;;;;;1.15;0.80;;;18.50;49.60;;;;;;5132333;27;20294;-72
2022/04/05 08:32:53;;;;;;;0.90;0.50;;;18.50;49.60;;;;;;5133183;27;20303;-72
2022/04/05 08:35:20;;;;;;;1.42;0.70;;;18.60;49.50;;;;;;5133036;27;20168;-70
2022/04/05 08:37:46;;;;;;;0.63;0.60;;;18.60;49.40;;;;;;5132632;27;20172;-71
2022/04/05 08:40:12;;;;;;;3.60;0.90;;;18.60;49.30;;;;;;5132903;27;20657;-72
2022/04/05 08:42:41;;;;;;;0.77;0.60;;;18.70;49.30;;;;;;5133057;27;20196;-72
2022/04/05 08:45:10;;;;;;;0.57;0.50;;;18.70;49.30;;;;;;5132070;27;20195;-73
2022/04/05 08:47:35;;;;;;;1.23;0.57;;;18.60;49.40;;;;;;5133246;27;20272;-71
2022/04/05 08:50:03;;;;;;;1.88;0.80;;;18.50;49.60;;;;;;5133004;27;20204;-73
2022/04/05 08:52:28;;;;;;;1.35;0.70;;;18.40;49.80;;;;;;5132048;27;20219;-72
2022/04/05 08:54:54;;;;;;;1.13;0.70;;;18.30;50.00;;;;;;5132809;27;20538;-73
2022/04/05 08:57:20;;;;;;;0.68;0.63;;;18.10;50.00;;;;;;5114205;27;20296;-72
2022/04/05 08:59:45;;;;;;;0.60;0.60;;;18.10;50.40;;;;;;5132123;27;20200;-70
2022/04/05 09:02:13;;;;;;;1.10;0.70;;;18.10;50.50;;;;;;5132752;27;20171;-72
2022/04/05 09:04:39;;;;;;;1.58;0.88;;;18.10;50.50;;;;;;5132681;27;20574;-71
2022/04/05 09:07:20;;;;;;;0.80;0.60;;;18.00;50.60;;;;;;5132039;27;20167;-71
2022/04/05 09:09:45;;;;;;;1.73;1.00;;;18.00;50.70;;;;;;5132895;27;20176;-69
2022/04/05 09:12:17;;;;;;;1.00;0.80;;;18.00;51.00;;;;;;5131604;27;20280;-70
2022/04/05 09:14:43;;;;;;;1.67;0.70;;;18.00;51.10;;;;;;5132889;28;20263;-68
2022/04/05 09:17:10;;;;;;;1.35;0.80;;;18.00;51.10;;;;;;5131724;27;20172;-68
2022/04/05 09:19:45;;;;;;;2.13;0.90;;;18.10;51.10;;;;;;5132157;28;20274;-68
2022/04/05 09:22:11;;;;;;;1.73;0.95;;;18.10;51.10;;;;;;5132296;28;20176;-68
2022/04/05 09:24:38;;;;;;;0.85;0.80;;;18.20;51.00;;;;;;5132336;28;20298;-68
2022/04/05 09:27:04;;;;;;;1.30;0.95;;;18.30;51.00;;;;;;5131701;27;20288;-69
2022/04/05 09:29:42;;;;;;;1.02;0.73;;;18.40;50.90;;;;;;5132200;28;20172;-69
2022/04/05 09:32:08;;;;;;;2.40;0.93;;;18.40;50.70;;;;;;5132191;28;20291;-68
2022/04/05 09:34:46;;;;;;;2.97;1.10;;;18.50;50.80;;;;;;5131803;28;20188;-67
2022/04/05 09:37:12;;;;;;;1.25;0.80;;;18.30;50.70;;;;;;5132351;28;20172;-67
2022/04/05 09:39:37;;;;;;;2.28;0.75;;;18.30;51.10;;;;;;5114479;28;20184;-67
2022/04/05 09:42:10;;;;;;;0.63;0.50;;;18.30;51.20;;;;;;5131588;28;20181;-68
2022/04/05 09:44:40;;;;;;;2.15;0.70;;;18.20;51.10;;;;;;5132550;27;20220;-68
2022/04/05 09:47:17;;;;;;;1.00;0.60;;;18.20;51.30;;;;;;5131588;28;20188;-68
2022/04/05 09:49:44;;;;;;;1.13;0.68;;;18.20;51.50;;;;;;5132459;27;20176;-68
2022/04/05 09:52:26;;;;;;;1.20;0.70;;;18.10;51.60;;;;;;5132197;28;20193;-66
2022/04/05 09:54:52;;;;;;;1.02;0.70;;;18.10;51.70;;;;;;5131679;28;20239;-68
2022/04/05 09:57:32;;;;;;;4.00;0.90;;;18.00;52.80;;;;;;5132243;28;20220;-68
2022/04/05 10:00:08;;;;;;;2.10;1.08;;;18.00;52.20;;;;;;5132467;27;20172;-67
2022/04/05 10:02:37;;;;;;;2.10;0.93;;;17.90;52.60;;;;;;5131831;28;20195;-68
2022/04/05 10:05:09;;;;;;;2.92;0.90;;;18.00;52.80;;;;;;5096879;28;20594;-68
2022/04/05 10:07:34;;;;;;;1.38;1.00;;;18.00;52.90;;;;;;5132440;28;20193;-68
2022/04/05 10:10:05;;;;;;;1.17;0.77;;;18.10;52.80;;;;;;5131788;28;20203;-69
2022/04/05 10:12:31;;;;;;;0.93;0.75;;;18.10;52.80;;;;;;5132007;27;20665;-70
2022/04/05 10:14:56;;;;;;;0.85;0.70;;;18.10;52.80;;;;;;5132243;28;20219;-70
2022/04/05 10:17:24;;;;;;;1.63;0.80;;;18.10;53.10;;;;;;5131132;27;20192;-70
2022/04/05 10:19:50;;;;;;;0.60;0.60;;;18.10;53.00;;;;;;5113820;28;20226;-69
2022/04/05 10:22:16;;;;;;;0.70;0.70;;;18.10;52.90;;;;;;5131142;28;20200;-70
2022/04/05 10:24:41;;;;;;;2.13;0.80;;;18.10;53.00;;;;;;5131997;28;20256;-70
2022/04/05 10:27:08;;;;;;;0.88;0.75;;;18.10;53.00;;;;;;5113141;28;20173;-71
2022/04/05 10:29:33;;;;;;;1.70;1.00;;;18.20;53.00;;;;;;5115629;27;20165;-68
2022/04/05 10:32:07;;;;;;;1.55;0.70;;;18.20;52.90;;;;;;5135550;27;20177;-68
2022/04/05 10:34:53;;;;;;;2.53;1.13;;;18.20;53.00;;;;;;5101098;27;20212;-68
2022/04/05 10:37:20;;;;;;;1.85;0.80;;;18.20;53.00;;;;;;5134968;27;20204;-68
2022/04/05 10:39:57;;;;;;;1.27;0.93;;;18.20;53.00;;;;;;5116849;27;20183;-68
2022/04/05 10:42:25;;;;;;;1.80;0.70;;;18.10;53.10;;;;;;5135143;27;20191;-67
2022/04/05 10:45:29;;;;;;;2.25;0.80;;;18.10;53.10;;;;;;5134768;27;20662;-67
2022/04/05 10:48:16;;;;;;;0.68;0.68;;;18.00;53.10;;;;;;5051961;28;20261;-69
2022/04/05 10:50:42;;;;;;;1.52;0.70;;;18.00;52.90;;;;;;5034821;28;20236;-68
2022/04/05 10:53:13;;;;;;;3.40;0.70;;;18.00;52.80;;;;;;5102641;27;20196;-67
2022/04/05 10:56:03;;;;;;;2.13;1.02;;;18.00;52.80;;;;;;5135363;27;20173;-63
2022/04/05 10:59:02;;;;;;;1.45;0.65;;;18.10;52.70;;;;;;5134039;27;20227;-67
2022/04/05 11:01:39;;;;;;;2.45;0.98;;;18.00;52.70;;;;;;5134822;27;20612;-65
2022/04/05 11:04:14;;;;;;;1.15;0.70;;;18.00;52.70;;;;;;5134983;27;20295;-66
2022/04/05 11:06:59;;;;;;;2.03;0.80;;;18.00;52.80;;;;;;5134258;27;20179;-69
2022/04/05 11:09:43;;;;;;;4.03;1.00;;;18.00;53.10;;;;;;5134793;27;20176;-69
2022/04/05 11:12:25;;;;;;;4.50;0.85;;;18.00;53.00;;;;;;5133879;27;20534;-70
2022/04/05 11:14:56;;;;;;;2.38;0.73;;;18.00;53.00;;;;;;5134811;27;20200;-71
2022/04/05 11:17:26;;;;;;;4.05;1.27;;;18.00;53.00;;;;;;5134483;27;20185;-70
2022/04/05 11:19:53;;;;;;;2.85;0.85;;;17.90;53.00;;;;;;5134250;27;20255;-72
2022/04/05 11:22:22;;;;;;;2.78;0.80;;;17.90;53.00;;;;;;5134805;27;20275;-68
2022/04/05 11:25:04;;;;;;;2.28;0.60;;;17.90;53.10;;;;;;5134567;27;20208;-68
2022/04/05 11:27:38;;;;;;;2.63;0.90;;;17.90;53.00;;;;;;5133600;27;20207;-68
2022/04/05 11:30:37;;;;;;;4.78;0.70;;;17.90;53.10;;;;;;5134667;27;20177;-68
2022/04/05 11:33:31;;;;;;;1.00;0.68;;;17.90;53.00;;;;;;5134046;27;20177;-66
2022/04/05 11:35:58;;;;;;;1.92;1.10;;;18.00;53.00;;;;;;5124999;27;20208;-66
2022/04/05 11:38:28;;;;;;;0.75;0.60;;;18.00;53.10;;;;;;5134422;27;20276;-66
2022/04/05 11:40:58;;;;;;;1.90;0.70;;;18.00;53.70;;;;;;5133457;27;20180;-66
2022/04/05 11:43:54;;;;;;;0.98;0.80;;;18.00;53.10;;;;;;5133683;27;20597;-67
2022/04/05 11:46:30;;;;;;;1.27;0.80;;;17.90;53.10;;;;;;5122095;27;20189;-72
2022/04/05 11:48:57;;;;;;;2.70;0.75;;;17.90;53.20;;;;;;5133528;27;20177;-68
2022/04/05 11:51:24;;;;;;;1.30;0.82;;;17.90;53.10;;;;;;5134298;27;20173;-66
2022/04/05 11:54:01;;;;;;;1.80;0.73;;;17.90;53.00;;;;;;5132821;27;20183;-69
2022/04/05 11:56:27;;;;;;;2.80;0.95;;;18.00;53.00;;;;;;5116914;27;20176;-68
2022/04/05 11:58:53;;;;;;;3.38;0.90;;;18.10;53.50;;;;;;5133708;27;20223;-66
2022/04/05 12:01:24;;;;;;;2.60;0.90;;;18.10;53.00;;;;;;5133148;27;20534;-66
2022/04/05 12:04:00;;;;;;;2.88;0.80;;;18.20;53.00;;;;;;5134169;27;20216;-67
2022/04/05 12:06:32;;;;;;;3.55;0.90;;;18.30;52.80;;;;;;5133663;27;20220;-68
2022/04/05 12:08:58;;;;;;;5.38;1.20;;;18.40;52.70;;;;;;5133357;27;20256;-68
2022/04/05 12:11:27;;;;;;;4.25;0.70;;;18.70;52.50;;;;;;5133562;27;20192;-69
2022/04/05 12:14:06;;;;;;;3.10;0.60;;;18.90;52.10;;;;;;5134136;27;20203;-69
2022/04/05 12:16:52;;;;;;;1.73;0.60;;;19.10;51.60;;;;;;5133046;27;20599;-69
2022/04/05 12:19:30;;;;;;;2.70;0.90;;;19.40;51.10;;;;;;5133469;27;20543;-72
2022/04/05 12:21:57;;;;;;;1.08;0.60;;;19.40;51.00;;;;;;5132982;27;20525;-69
2022/04/05 12:24:23;;;;;;;2.20;0.80;;;19.50;51.50;;;;;;5133306;27;20693;-71
2022/04/05 12:26:48;;;;;;;1.48;1.00;;;19.60;50.70;;;;;;5133515;27;20164;-70
2022/04/05 12:29:14;;;;;;;1.85;0.60;;;19.70;50.60;;;;;;5132489;27;20215;-73
2022/04/05 12:31:40;;;;;;;2.17;0.60;;;19.70;50.50;;;;;;5133265;27;20171;-69
2022/04/05 12:34:11;;;;;;;1.25;0.63;;;19.80;50.50;;;;;;5132912;27;20271;-69
2022/04/05 12:36:41;;;;;;;2.17;0.82;;;19.80;50.50;;;;;;5132551;27;20598;-69
2022/04/05 12:39:20;;;;;;;2.08;0.75;;;19.70;50.60;;;;;;5133141;27;20175;-70
2022/04/05 12:41:57;;;;;;;2.33;1.05;;;19.60;50.70;;;;;;5133510;27;20611;-68
2022/04/05 12:44:27;;;;;;;1.95;0.80;;;19.60;50.90;;;;;;5132128;27;20211;-70
2022/04/05 12:46:54;;;;;;;2.10;0.65;;;19.50;51.10;;;;;;5133163;27;20595;-69
2022/04/05 12:49:34;;;;;;;2.17;0.50;;;19.40;51.30;;;;;;5132723;27;20176;-69
2022/04/05 12:52:10;;;;;;;1.27;0.75;;;19.40;51.20;;;;;;5132012;27;20186;-69